ASN logo
Last updated: 27 September 2020
Statuts:Préliminaire
Date:vendredi 28 octobre 2016
Heure:20:07
Type/Sous-type:Silhouette image of generic SW4 model; specific model in this crash may look slightly different
Swearingen SA227-DC Metro 23 (C-26B)
Compagnie:Servicio Aéreo de Policia
Immatriculation: PNC-0226
Numéro de série: DC-811M
Année de Fabrication: 1995
Equipage:victimes: 0 / à bord:
Passagers:victimes: 0 / à bord:
Total:victimes: 0 / à bord: 11
Dégats de l'appareil: Substantiels
Lieu de l'accident:Bogotá-Eldorado Airport (BOG) (   Colombie)
Phase de vol: A l'atterrissage (LDG)
Nature:Militaire
Aéroport de départ:Pereira Airport (PEI/SKPE), Colombie
Aéroport de destination:Bogotá-Eldorado Airport (BOG/SKBO), Colombie
Détails:
A Swearingen Metro 23, operated by Colombia's National Police, suffered a runway excursion accident upon landing on runway 13L at Bogotá-Eldorado Airport, Colombia.
Initial reports say the aircraft bounced three times on landing after which it went off the runway. The nose landing gear collapsed in the accident sequence and the aircraft sustained damage to the nose land propeller blades as a result.
Colombia's Minister of Internal Affairs, Juan Fernando Cristo, was on board.
Runway 13L is asphalt runway with a Landing Distance Available (LDA) of 3800 m (12467 ft).

Sources:
» El Espectador
» Webinfomil

METAR Weather report:
14:28 UTC / 19:28 local time:
SKBO 281428Z VRB02KT 80000 4000E HZ SCT230 19/11 A3034

15:00 UTC / 20:00 local time:
SKBO 281500Z 01005KT 8000 SCT023 20/11 A3033 RMK HZ

16:00 UTC / 21:00 local time:
SKBO 281600Z VRB02KT 8000 BKN023 20/10 A3029 RMK HZ


Photos

photo of Swearingen-SA227-DC-Metro-23-PNC-0226
accident date: 28-10-2016
type: Swearingen SA227-DC Metro 23 (C-26B)
registration: PNC-0226
 

Video, social media

Plan
Ce plan montre l'aéroport de départ ainsi que la supposée destination du vol. La ligne fixe reliant les deux aéroports n'est pas le plan de vol exact.
La distance entre Pereira Airport et Bogotá-Eldorado Airport est de 176 km (110 miles).

Les informations ci-dessus ne représentent pas l'opinion de la 'Flight Safety Foundation' ou de 'Aviation Safety Network' sur les causes de l'accident. Ces informations prélimimaires sont basées sur les faits tel qu'ils sont connus à ce jour.
languages: languages

Share